Terminal Aerodrome Forecast
Issued by NWS Dodge City, KS

Current Version | Previous Version | Text Only | Print | Product List | Glossary On
Versions: 1 2 3 4 5 6 7 8 9 10 11 12 13 14 15 16 17 18 19 20 21 22 23 24 25 26
000
FTUS43 KDDC 062326
TAFDDC
TAF
KDDC 062326Z 0700/0724 02015G25KT P6SM BKN017
     FM070400 04013KT P6SM SCT025
     FM071500 05014G22KT P6SM SCT080=

USA.gov is the U.S. government's official web portal to all federal, state and local government web resources and services.